Home > Products > Valid Products > TAF

000
FTUS44 KSHV 260331 AAA
TAFGGG
TAF AMD
KGGG 260331Z 2604/2624 12016G25KT P6SM -RA FEW009 SCT090 BKN110
     FM260500 17010KT 5SM -SHRA OVC020
     FM261200 19006KT 5SM BR OVC015
     FM261500 22011KT P6SM OVC015
     FM261800 22010KT P6SM SCT035=



000
FTUS44 KSHV 260328 AAB
TAFELD
TAF AMD
KELD 260328Z 2603/2624 00000KT 5SM TSRA BR BKN090CB OVC110
     FM260500 17008KT 5SM -SHRA OVC050
      TEMPO 2608/2612 BKN025
     FM261200 19010KT P6SM BKN025
     FM261800 22010KT P6SM SCT035=



000
FTUS44 KSHV 260325 AAA
TAFTYR
TAF AMD
KTYR 260325Z 2603/2624 23012KT P6SM FEW016 SCT090 BKN110
     FM261200 19008KT 5SM BR BKN015
     FM261500 21010KT 5SM HZ OVC011
     FM261800 22010KT P6SM SCT035=



000
FTUS44 KSHV 260325 CCA
TAFTYR
TAF COR
KTYR 260325Z 2603/2624 23012KT P6SM FEW016 SCT090 BKN110
      TEMPO 2608/2612 5SM BR BKN015
     FM261200 19008KT 5SM BR BKN015
     FM261500 21010KT 5SM HZ OVC011
     FM261800 22010KT P6SM SCT035=



000
FTUS44 KSHV 260323 AAB
TAFMLU
TAF AMD
KMLU 260323Z 2603/2624 16005KT P6SM FEW120
      TEMPO 2603/2605 VRB20G40KT 1/2SM +TSRA SCT015 BKN035CB
     FM260500 16010KT 3SM TSRA BR OVC020CB
     FM261000 17008KT 5SM -SHRA VCTS OVC020CB
     FM261200 16008KT 5SM BR OVC015
     FM261500 19008KT P6SM OVC100
     FM261800 22010KT P6SM SCT035=



000
FTUS44 KSHV 260243 AAB
TAFSHV
TAF AMD
KSHV 260243Z 2603/2624 16010KT P6SM -TSRA OVC035CB
     FM260400 18008KT P6SM OVC020
     FM261200 19007KT 5SM BR OVC025
     FM261500 21013KT P6SM BKN025
     FM261800 22010KT P6SM SCT035=



000
FTUS44 KSHV 260219 AAA
TAFMLU
TAF AMD
KMLU 260219Z 2602/2624 15010KT P6SM -SHRA OVC045
     FM260300 VRB15G30KT 1SM TSRA BR OVC015CB
     FM260600 16010KT 5SM TSRA BR OVC020CB
     FM261000 17008KT 5SM -SHRA VCTS OVC020CB
     FM261200 16008KT 5SM BR OVC015
     FM261500 19008KT P6SM OVC100
     FM261800 22010KT P6SM SCT035=



000
FTUS44 KSHV 260218 AAA
TAFELD
TAF AMD
KELD 260218Z 2602/2624 16010KT 1SM TSRA BR OVC015CB
     FM260400 17008KT 3SM TSRA BR OVC020CB
     FM260900 17008KT 5SM -SHRA VCTS OVC020CB
     FM261500 19010KT P6SM BKN025
     FM261800 22010KT P6SM SCT035=



000
FTUS44 KSHV 260218 AAA
TAFELD
TAF AMD
KELD 260218Z 2602/2624 16010KT 1SM TSRA BR OVC015CB
     FM260400 17008KT 3SM TSRA BR OVC020CB
     FM260900 17008KT 5SM -SHRA VCTS OVC020CB
     FM261500 19010KT P6SM BKN025
     FM261800 22010KT P6SM SCT035=



000
FTUS44 KSHV 260016 AAB
TAFSHV
TAF AMD
KSHV 260016Z 2600/2624 VRB20G40KT 1SM +TSRA BR OVC015CB
     FM260200 16010KT 3SM TSRA BR OVC015CB
     FM260700 16010KT 5SM -SHRA VCTS OVC020CB
     FM261200 19007KT 5SM BR OVC025
     FM261500 21013KT P6SM BKN025
     FM261800 22010KT P6SM SCT035=



000
FTUS44 KSHV 260016 AAB
TAFSHV
TAF AMD
KSHV 260016Z 2600/2624 VRB20G40KT 1SM +TSRA BR OVC015CB
     FM260200 16010KT 3SM TSRA BR OVC015CB
     FM260700 16010KT 5SM -SHRA VCTS OVC020CB
     FM261200 19007KT 5SM BR OVC025
     FM261500 21013KT P6SM BKN025
     FM261800 22010KT P6SM SCT035=



000
FTUS44 KSHV 260003 AAA
TAFTXK
TAF AMD
KTXK 260003Z 2600/2624 VRB20G40KT 1SM +TSRA BR OVC015CB
     FM260200 17008KT 4SM TSRA BR OVC015CB
     FM260700 17008KT 5SM -SHRA VCTS OVC020CB
     FM261200 20008KT 5SM BR OVC011
     FM261500 23010KT P6SM OVC015
     FM261800 22010KT P6SM SCT035=



000
FTUS44 KSHV 252323
TAFELD
TAF
KELD 252323Z 2600/2624 17012KT P6SM VCTS BKN040CB OVC060
     FM260200 16010KT 5SM TSRA BR OVC035CB
     FM260900 17008KT 5SM -SHRA VCTS OVC020CB
     FM261500 19010KT P6SM BKN025
     FM261800 22010KT P6SM SCT035=



000
FTUS44 KSHV 252323
TAFLFK
TAF
KLFK 252323Z 2600/2624 18010KT P6SM SCT040
     FM260130 VRB20G40KT 3SM TSRA BR BKN025CB
     FM260300 17009KT 5SM -SHRA VCTS OVC020CB
     FM261200 16006KT 5SM BR OVC015
     FM261500 19010KT P6SM BKN025
     FM261800 22010KT P6SM SCT035=



000
FTUS44 KSHV 252323
TAFTXK
TAF
KTXK 252323Z 2600/2624 17010KT 3SM TSRA BR OVC015CB
     FM260700 17008KT 5SM -SHRA VCTS OVC020CB
     FM261200 20008KT 5SM BR OVC011
     FM261500 23010KT P6SM OVC015
     FM261800 22010KT P6SM SCT035=



000
FTUS44 KSHV 252323
TAFTYR
TAF
KTYR 252323Z 2600/2624 18014G22KT 4SM TSRA BR OVC015CB
     FM260300 17010KT 5SM -SHRA VCTS OVC020CB
     FM261200 19008KT 5SM BR BKN015
     FM261500 21010KT 5SM HZ OVC011
     FM261800 22010KT P6SM SCT035=



000
FTUS44 KSHV 252323
TAFMLU
TAF
KMLU 252323Z 2600/2624 15010KT P6SM -SHRA OVC045
     FM260300 16010KT 4SM TSRA BR OVC035CB
     FM261000 17008KT 5SM -SHRA VCTS OVC020CB
     FM261200 16008KT 5SM BR OVC015
     FM261500 19008KT P6SM OVC100
     FM261800 22010KT P6SM SCT035=



000
FTUS44 KSHV 252323
TAFSHV
TAF
KSHV 252323Z 2600/2624 17012KT 4SM TSRA BR OVC035CB
     FM260700 16010KT 5SM -SHRA VCTS OVC020CB
     FM261200 19007KT 5SM BR OVC025
     FM261500 21013KT P6SM BKN025
     FM261800 22010KT P6SM SCT035=



000
FTUS44 KSHV 252323
TAFGGG
TAF
KGGG 252323Z 2600/2624 17012KT 3SM TSRA BR OVC015CB
     FM260400 17010KT 5SM -SHRA VCTS OVC020CB
     FM261200 19006KT 5SM BR OVC015
     FM261500 22011KT P6SM OVC015
     FM261800 22010KT P6SM SCT035=



000
FTUS44 KSHV 252137 AAB
TAFGGG
TAF AMD
KGGG 252137Z 2522/2618 18014G22KT 5SM -SHRA SCT005 BKN040
     FM260100 17012KT 3SM TSRA BR OVC015CB
     FM260400 17010KT 5SM -SHRA VCTS OVC020CB
     FM261200 19006KT 5SM BR OVC015
     FM261500 22011KT P6SM OVC015=



000
FTUS44 KSHV 252134 AAB
TAFLFK
TAF AMD
KLFK 252134Z 2522/2618 18010KT P6SM SCT040
     FM260030 VRB20G40KT 3SM TSRA BR BKN025CB
     FM260300 17009KT 5SM -SHRA VCTS OVC020CB
     FM261200 16006KT 5SM BR OVC015
     FM261500 19010KT P6SM BKN025=



000
FTUS44 KSHV 251805 AAA
TAFGGG
TAF AMD
KGGG 251805Z 2518/2618 17010KT P6SM -SHRA SCT040
     FM252200 18014G22KT 4SM TSRA BR BKN035CB OVC060
     FM260400 17010KT 5SM -SHRA VCTS OVC020CB
     FM261200 19006KT 5SM BR OVC015
     FM261500 22011KT P6SM OVC015=



000
FTUS44 KSHV 251805 AAA
TAFGGG
TAF AMD
KGGG 251805Z 2518/2618 17010KT P6SM -SHRA SCT040
     FM252200 18014G22KT 4SM TSRA BR BKN035CB OVC060
     FM260400 17010KT 5SM -SHRA VCTS OVC020CB
     FM261200 19006KT 5SM BR OVC015
     FM261500 22011KT P6SM OVC015=



000
FTUS44 KSHV 251804 AAA
TAFLFK
TAF AMD
KLFK 251804Z 2518/2618 17012KT P6SM -SHRA SCT040
     FM252100 18012G18KT 4SM TSRA BR BKN035CB OVC060
     FM260300 17009KT 5SM -SHRA VCTS OVC020CB
     FM261200 16006KT 5SM BR OVC015
     FM261500 19010KT P6SM BKN025=



000
FTUS44 KSHV 251804 AAA
TAFLFK
TAF AMD
KLFK 251804Z 2518/2618 17012KT P6SM -SHRA SCT040
     FM252100 18012G18KT 4SM TSRA BR BKN035CB OVC060
     FM260300 17009KT 5SM -SHRA VCTS OVC020CB
     FM261200 16006KT 5SM BR OVC015
     FM261500 19010KT P6SM BKN025=



000
FTUS44 KSHV 251803 AAA
TAFTYR
TAF AMD
KTYR 251803Z 2518/2618 17013G20KT P6SM -RA SCT040
     FM252100 18014G22KT 4SM TSRA BR BKN035CB OVC060
     FM260300 17010KT 5SM -SHRA VCTS OVC020CB
     FM261200 19008KT 5SM BR BKN015
     FM261500 21010KT 5SM HZ OVC011=



000
FTUS44 KSHV 251803 AAA
TAFTYR
TAF AMD
KTYR 251803Z 2518/2618 17013G20KT P6SM -RA SCT040
     FM252100 18014G22KT 4SM TSRA BR BKN035CB OVC060
     FM260300 17010KT 5SM -SHRA VCTS OVC020CB
     FM261200 19008KT 5SM BR BKN015
     FM261500 21010KT 5SM HZ OVC011=



000
FTUS44 KSHV 251715 RRA
TAFTXK

TAF
KTXK 251740Z 2518/2618 17010KT P6SM SCT025 BKN060 BKN100
     FM252100 17012G18KT P6SM VCTS BKN035CB OVC060
     FM260000 17010KT 4SM TSRA BR OVC035CB
     FM260700 17008KT 5SM -SHRA VCTS OVC020CB
     FM261200 20008KT 5SM BR OVC011
     FM261500 23010KT P6SM OVC015=



000
FTUS44 KSHV 251716 RRA
TAFTYR

TAF
KTYR 251740Z 2518/2618 17013G20KT P6SM VCTS BKN025CB BKN060 BKN100
     FM252100 18014G22KT 4SM TSRA BR BKN035CB OVC060
     FM260300 17010KT 5SM -SHRA VCTS OVC020CB
     FM261200 19008KT 5SM BR BKN015
     FM261500 21010KT 5SM HZ OVC011=



000
FTUS44 KSHV 251714 RRA
TAFSHV

TAF
KSHV 251740Z 2518/2618 17010KT P6SM SCT015
     FM252100 18014G22KT P6SM VCTS BKN035CB OVC060
     FM260000 17012KT 4SM TSRA BR OVC035CB
     FM260700 16010KT 5SM -SHRA VCTS OVC020CB
     FM261200 19007KT 5SM BR OVC025
     FM261500 21013KT P6SM BKN025=



000
FTUS44 KSHV 251717 RRA
TAFLFK

TAF
KLFK 251740Z 2518/2618 17010G15KT P6SM VCTS BKN025CB BKN060 BKN100
     FM252100 18012G18KT 4SM TSRA BR BKN035CB OVC060
     FM260300 17009KT 5SM -SHRA VCTS OVC020CB
     FM261200 16006KT 5SM BR OVC015
     FM261500 19010KT P6SM BKN025=



000
FTUS44 KSHV 251716 RRA
TAFTYR

TAF
KTYR 251740Z 2518/2618 17013G20KT P6SM VCTS BKN025CB BKN060 BKN100
     FM252100 18014G22KT 4SM TSRA BR BKN035CB OVC060
     FM260300 17010KT 5SM -SHRA VCTS OVC020CB
     FM261200 19008KT 5SM BR BKN015
     FM261500 21010KT 5SM HZ OVC011=



000
FTUS44 KSHV 251740
TAFTXK
TAF
KTXK 251740Z 2518/2618 17010KT P6SM SCT025 BKN060 BKN100
     FM252100 17012G18KT P6SM VCTS BKN035CB OVC060
     FM260000 17010KT 4SM TSRA BR OVC035CB
     FM260700 17008KT 5SM -SHRA VCTS OVC020CB
     FM261200 20008KT 5SM BR OVC011
     FM261500 23010KT P6SM OVC015=



000
FTUS44 KSHV 251740
TAFSHV
TAF
KSHV 251740Z 2518/2618 17010KT P6SM SCT015
     FM252100 18014G22KT P6SM VCTS BKN035CB OVC060
     FM260000 17012KT 4SM TSRA BR OVC035CB
     FM260700 16010KT 5SM -SHRA VCTS OVC020CB
     FM261200 19007KT 5SM BR OVC025
     FM261500 21013KT P6SM BKN025=



000
FTUS44 KSHV 251740
TAFLFK
TAF
KLFK 251740Z 2518/2618 17010G15KT P6SM VCTS BKN025CB BKN060 BKN100
     FM252100 18012G18KT 4SM TSRA BR BKN035CB OVC060
     FM260300 17009KT 5SM -SHRA VCTS OVC020CB
     FM261200 16006KT 5SM BR OVC015
     FM261500 19010KT P6SM BKN025=



000
FTUS44 KSHV 251740
TAFMLU
TAF
KMLU 251740Z 2518/2618 18012G18KT P6SM BKN035 OVC060
     FM260000 17013G20KT P6SM VCTS BKN040CB OVC060
     FM260300 16010KT 4SM TSRA BR OVC035CB
     FM261000 17008KT 5SM -SHRA VCTS OVC020CB
     FM261200 16008KT 5SM BR OVC015
     FM261500 19008KT P6SM OVC100=



000
FTUS44 KSHV 251740
TAFTYR
TAF
KTYR 251740Z 2518/2618 17013G20KT P6SM VCTS BKN025CB BKN060 BKN100
     FM252100 18014G22KT 4SM TSRA BR BKN035CB OVC060
     FM260300 17010KT 5SM -SHRA VCTS OVC020CB
     FM261200 19008KT 5SM BR BKN015
     FM261500 21010KT 5SM HZ OVC011=



000
FTUS44 KSHV 251740
TAFGGG
TAF
KGGG 251740Z 2518/2618 17013G20KT P6SM VCTS BKN025CB BKN060 BKN100
     FM252200 18014G22KT 4SM TSRA BR BKN035CB OVC060
     FM260400 17010KT 5SM -SHRA VCTS OVC020CB
     FM261200 19006KT 5SM BR OVC015
     FM261500 22011KT P6SM OVC015=



000
FTUS44 KSHV 251717 RRA
TAFLFK

TAF
KLFK 251740Z 2518/2618 17010G15KT P6SM VCTS BKN025CB BKN060 BKN100
     FM252100 18012G18KT 4SM TSRA BR BKN035CB OVC060
     FM260300 17009KT 5SM -SHRA VCTS OVC020CB
     FM261200 16006KT 5SM BR OVC015
     FM261500 19010KT P6SM BKN025=



000
FTUS44 KSHV 251740
TAFELD
TAF
KELD 251740Z 2518/2618 18010KT P6SM BKN035 OVC060
     FM260000 17012KT P6SM VCTS BKN040CB OVC060
     FM260200 16010KT 5SM TSRA BR OVC035CB
     FM260900 17008KT 5SM -SHRA VCTS OVC020CB
     FM261500 19010KT P6SM BKN025=



000
FTUS44 KSHV 251714 RRA
TAFMLU

TAF
KMLU 251740Z 2518/2618 18012G18KT P6SM BKN035 OVC060
     FM260000 17013G20KT P6SM VCTS BKN040CB OVC060
     FM260300 16010KT 4SM TSRA BR OVC035CB
     FM261000 17008KT 5SM -SHRA VCTS OVC020CB
     FM261200 16008KT 5SM BR OVC015
     FM261500 19008KT P6SM OVC100=



000
FTUS44 KSHV 251717 RRA
TAFGGG

TAF
KGGG 251720Z 2518/2618 17013G20KT P6SM VCTS BKN025CB BKN060 BKN100
     FM252200 18014G22KT 4SM TSRA BR BKN035CB OVC060
     FM260400 17010KT 5SM -SHRA VCTS OVC020CB
     FM261200 19006KT 5SM BR OVC015
     FM261500 22011KT P6SM OVC015=



000
FTUS44 KSHV 251720
TAFTXK
TAF
KTXK 251720Z 2518/2618 17010KT P6SM SCT025 BKN060 BKN100
     FM252100 17012G18KT P6SM VCTS BKN035CB OVC060
     FM260000 17010KT 4SM TSRA BR OVC035CB
     FM260700 17008KT 5SM -SHRA VCTS OVC020CB
     FM261200 20008KT 5SM BR OVC011
     FM261500 23010KT P6SM OVC015=



000
FTUS44 KSHV 251720
TAFLFK
TAF
KLFK 251720Z 2518/2618 17010G15KT P6SM VCTS BKN025CB BKN060 BKN100
     FM252100 18012G18KT 4SM TSRA BR BKN035CB OVC060
     FM260300 17009KT 5SM -SHRA VCTS OVC020CB
     FM261200 16006KT 5SM BR OVC015
     FM261500 19010KT P6SM BKN025=



000
FTUS44 KSHV 251718 RRA
TAFELD

TAF
KELD 251720Z 2518/2618 18010KT P6SM BKN035 OVC060
     FM260000 17012KT P6SM VCTS BKN040CB OVC060
     FM260200 16010KT 5SM TSRA BR OVC035CB
     FM260900 17008KT 5SM -SHRA VCTS OVC020CB
     FM261500 19010KT P6SM BKN025=



000
FTUS44 KSHV 251720
TAFMLU
TAF
KMLU 251720Z 2518/2618 18012G18KT P6SM BKN035 OVC060
     FM260000 17013G20KT P6SM VCTS BKN040CB OVC060
     FM260300 16010KT 4SM TSRA BR OVC035CB
     FM261000 17008KT 5SM -SHRA VCTS OVC020CB
     FM261200 16008KT 5SM BR OVC015
     FM261500 19008KT P6SM OVC100=



000
FTUS44 KSHV 251717 RRA
TAFGGG

TAF
KGGG 251720Z 2518/2618 17013G20KT P6SM VCTS BKN025CB BKN060 BKN100
     FM252200 18014G22KT 4SM TSRA BR BKN035CB OVC060
     FM260400 17010KT 5SM -SHRA VCTS OVC020CB
     FM261200 19006KT 5SM BR OVC015
     FM261500 22011KT P6SM OVC015=



000
FTUS44 KSHV 251720
TAFTYR
TAF
KTYR 251720Z 2518/2618 17013G20KT P6SM VCTS BKN025CB BKN060 BKN100
     FM252100 18014G22KT 4SM TSRA BR BKN035CB OVC060
     FM260300 17010KT 5SM -SHRA VCTS OVC020CB
     FM261200 19008KT 5SM BR BKN015
     FM261500 21010KT 5SM HZ OVC011=



000
FTUS44 KSHV 251720
TAFGGG
TAF
KGGG 251720Z 2518/2618 17013G20KT P6SM VCTS BKN025CB BKN060 BKN100
     FM252200 18014G22KT 4SM TSRA BR BKN035CB OVC060
     FM260400 17010KT 5SM -SHRA VCTS OVC020CB
     FM261200 19006KT 5SM BR OVC015
     FM261500 22011KT P6SM OVC015=



000
FTUS44 KSHV 251720
TAFELD
TAF
KELD 251720Z 2518/2618 18010KT P6SM BKN035 OVC060
     FM260000 17012KT P6SM VCTS BKN040CB OVC060
     FM260200 16010KT 5SM TSRA BR OVC035CB
     FM260900 17008KT 5SM -SHRA VCTS OVC020CB
     FM261500 19010KT P6SM BKN025=



000
FTUS44 KSHV 251720
TAFSHV
TAF
KSHV 251720Z 2518/2618 17010KT P6SM SCT015
     FM252100 18014G22KT P6SM VCTS BKN035CB OVC060
     FM260000 17012KT 4SM TSRA BR OVC035CB
     FM260700 16010KT 5SM -SHRA VCTS OVC020CB
     FM261200 19007KT 5SM BR OVC025
     FM261500 21013KT P6SM BKN025=



000
FTUS44 KSHV 251718 RRA
TAFELD

TAF
KELD 251720Z 2518/2618 18010KT P6SM BKN035 OVC060
     FM260000 17012KT P6SM VCTS BKN040CB OVC060
     FM260200 16010KT 5SM TSRA BR OVC035CB
     FM260900 17008KT 5SM -SHRA VCTS OVC020CB
     FM261500 19010KT P6SM BKN025=



000
FTUS44 KSHV 251549 AAB
TAFSHV
TAF AMD
KSHV 251549Z 2516/2612 17010KT P6SM SCT015
     FM252100 18014G22KT P6SM VCTS BKN035CB OVC060
     FM260000 17012KT 4SM TSRA BR OVC035CB
     FM260700 16010KT 5SM -SHRA VCTS OVC020CB=



000
FTUS44 KSHV 251549 AAB
TAFSHV
TAF AMD
KSHV 251549Z 2516/2612 17010KT P6SM SCT015
     FM252100 18014G22KT P6SM VCTS BKN035CB OVC060
     FM260000 17012KT 4SM TSRA BR OVC035CB
     FM260700 16010KT 5SM -SHRA VCTS OVC020CB=



000
FTUS44 KSHV 251341 AAA
TAFLFK
TAF AMD
KLFK 251341Z 2514/2612 16009KT P6SM BKN005
     FM251500 17012KT P6SM BKN011 OVC020
     FM251800 17010G15KT P6SM VCTS BKN025CB BKN060 BKN100
     FM252100 18012G18KT 4SM TSRA BR BKN035CB OVC060
     FM260300 17009KT 5SM -SHRA VCTS OVC020CB=



000
FTUS44 KSHV 251341 AAA
TAFLFK
TAF AMD
KLFK 251341Z 2514/2612 16009KT P6SM BKN005
     FM251500 17012KT P6SM BKN011 OVC020
     FM251800 17010G15KT P6SM VCTS BKN025CB BKN060 BKN100
     FM252100 18012G18KT 4SM TSRA BR BKN035CB OVC060
     FM260300 17009KT 5SM -SHRA VCTS OVC020CB=



000
FTUS44 KSHV 251150
TAFSHV
TAF
KSHV 251150Z 2512/2612 15004KT P6SM OVC009
     FM251400 16008KT P6SM BKN015 OVC025
     FM251700 17010KT P6SM BKN025 BKN060 BKN100
     FM252100 18014G22KT P6SM VCTS BKN035CB OVC060
     FM260000 17012KT 4SM TSRA BR OVC035CB
     FM260700 16010KT 5SM -SHRA VCTS OVC020CB=



000
FTUS44 KSHV 251150
TAFSHV
TAF
KSHV 251150Z 2512/2612 15004KT P6SM OVC009
     FM251400 16008KT P6SM BKN015 OVC025
     FM251700 17010KT P6SM BKN025 BKN060 BKN100
     FM252100 18014G22KT P6SM VCTS BKN035CB OVC060
     FM260000 17012KT 4SM TSRA BR OVC035CB
     FM260700 16010KT 5SM -SHRA VCTS OVC020CB=



000
FTUS44 KSHV 251150
TAFTXK
TAF
KTXK 251150Z 2512/2612 18007KT P6SM OVC010
     FM251400 18008KT P6SM BKN015 OVC025
     FM251700 17010KT P6SM SCT025 BKN060 BKN100
     FM252100 17012G18KT P6SM VCTS BKN035CB OVC060
     FM260000 17010KT 4SM TSRA BR OVC035CB
     FM260700 17008KT 5SM -SHRA VCTS OVC020CB=



000
FTUS44 KSHV 251150
TAFMLU
TAF
KMLU 251150Z 2512/2612 19006KT P6SM OVC009
     FM251400 17008KT P6SM BKN015 OVC025
     FM251800 18012G18KT P6SM BKN035 OVC060
     FM260000 17013G20KT P6SM VCTS BKN040CB OVC060
     FM260300 16010KT 4SM TSRA BR OVC035CB
     FM261000 17008KT 5SM -SHRA VCTS OVC020CB=



000
FTUS44 KSHV 251150
TAFTXK
TAF
KTXK 251150Z 2512/2612 18007KT P6SM OVC010
     FM251400 18008KT P6SM BKN015 OVC025
     FM251700 17010KT P6SM SCT025 BKN060 BKN100
     FM252100 17012G18KT P6SM VCTS BKN035CB OVC060
     FM260000 17010KT 4SM TSRA BR OVC035CB
     FM260700 17008KT 5SM -SHRA VCTS OVC020CB=



000
FTUS44 KSHV 251150
TAFMLU
TAF
KMLU 251150Z 2512/2612 19006KT P6SM OVC009
     FM251400 17008KT P6SM BKN015 OVC025
     FM251800 18012G18KT P6SM BKN035 OVC060
     FM260000 17013G20KT P6SM VCTS BKN040CB OVC060
     FM260300 16010KT 4SM TSRA BR OVC035CB
     FM261000 17008KT 5SM -SHRA VCTS OVC020CB=



000
FTUS44 KSHV 251150
TAFELD
TAF
KELD 251150Z 2512/2612 15007KT P6SM OVC014
     FM251500 17008KT P6SM BKN020 OVC030
     FM251800 18010KT P6SM BKN035 OVC060
     FM260000 17012KT P6SM VCTS BKN040CB OVC060
     FM260200 16010KT 4SM TSRA BR OVC035CB
     FM260900 17008KT 5SM -SHRA VCTS OVC020CB=



000
FTUS44 KSHV 251150
TAFLFK
TAF
KLFK 251150Z 2512/2612 11006KT 2SM BR OVC004
      TEMPO 2512/2513 1SM BR OVC002
     FM251500 16009KT P6SM BKN010 OVC020
     FM251800 17010G15KT P6SM VCTS BKN025CB BKN060 BKN100
     FM252100 18012G18KT 4SM TSRA BR BKN035CB OVC060
     FM260300 17009KT 5SM -SHRA VCTS OVC020CB=



000
FTUS44 KSHV 251150
TAFTYR
TAF
KTYR 251150Z 2512/2612 17007KT P6SM BKN013 OVC020
     FM251400 16008KT P6SM BKN020 OVC030
     FM251800 17013G20KT P6SM VCTS BKN025CB BKN060 BKN100
     FM252100 18014G22KT 4SM TSRA BR BKN035CB OVC060
     FM260300 17010KT 5SM -SHRA VCTS OVC020CB=



000
FTUS44 KSHV 251150
TAFELD
TAF
KELD 251150Z 2512/2612 15007KT P6SM OVC014
     FM251500 17008KT P6SM BKN020 OVC030
     FM251800 18010KT P6SM BKN035 OVC060
     FM260000 17012KT P6SM VCTS BKN040CB OVC060
     FM260200 16010KT 4SM TSRA BR OVC035CB
     FM260900 17008KT 5SM -SHRA VCTS OVC020CB=



000
FTUS44 KSHV 251150
TAFGGG
TAF
KGGG 251150Z 2512/2612 16005KT P6SM OVC013
     FM251400 16008KT P6SM BKN020 OVC030
     FM251800 17013G20KT P6SM VCTS BKN025CB BKN060 BKN100
     FM252200 18014G22KT 4SM TSRA BR BKN035CB OVC060
     FM260400 17010KT 5SM -SHRA VCTS OVC020CB=



000
FTUS44 KSHV 251150
TAFTYR
TAF
KTYR 251150Z 2512/2612 17007KT P6SM BKN013 OVC020
     FM251400 16008KT P6SM BKN020 OVC030
     FM251800 17013G20KT P6SM VCTS BKN025CB BKN060 BKN100
     FM252100 18014G22KT 4SM TSRA BR BKN035CB OVC060
     FM260300 17010KT 5SM -SHRA VCTS OVC020CB=



000
FTUS44 KSHV 251150
TAFLFK
TAF
KLFK 251150Z 2512/2612 11006KT 2SM BR OVC004
      TEMPO 2512/2513 1SM BR OVC002
     FM251500 16009KT P6SM BKN010 OVC020
     FM251800 17010G15KT P6SM VCTS BKN025CB BKN060 BKN100
     FM252100 18012G18KT 4SM TSRA BR BKN035CB OVC060
     FM260300 17009KT 5SM -SHRA VCTS OVC020CB=



000
FTUS44 KSHV 251150
TAFGGG
TAF
KGGG 251150Z 2512/2612 16005KT P6SM OVC013
     FM251400 16008KT P6SM BKN020 OVC030
     FM251800 17013G20KT P6SM VCTS BKN025CB BKN060 BKN100
     FM252200 18014G22KT 4SM TSRA BR BKN035CB OVC060
     FM260400 17010KT 5SM -SHRA VCTS OVC020CB=



000
FTUS44 KSHV 251026 AAA
TAFLFK
TAF AMD
KLFK 251026Z 2510/2606 13004KT 2SM BR OVC003
      TEMPO 2510/2513 1SM BR OVC002
     FM251500 16009KT P6SM BKN015 BKN035
     FM251800 15010KT P6SM VCTS OVC035CB
     FM260000 16009KT 5SM -TSRA BR OVC035CB=



000
FTUS44 KSHV 251026 AAA
TAFLFK
TAF AMD
KLFK 251026Z 2510/2606 13004KT 2SM BR OVC003
      TEMPO 2510/2513 1SM BR OVC002
     FM251500 16009KT P6SM BKN015 BKN035
     FM251800 15010KT P6SM VCTS OVC035CB
     FM260000 16009KT 5SM -TSRA BR OVC035CB=



000
FTUS44 KSHV 250733 AAA
TAFMLU
TAF AMD
KMLU 250733Z 2508/2606 16005KT P6SM BKN008
      TEMPO 2508/2512 SCT008
     FM251200 17006KT P6SM OVC010
     FM251700 17008KT P6SM SCT020 BKN035
     FM251900 17010KT P6SM VCTS BKN050CB=



000
FTUS44 KSHV 250732 AAB
TAFSHV
TAF AMD
KSHV 250732Z 2508/2606 16007KT P6SM BKN005
      TEMPO 2508/2512 SCT005 OVC010
     FM251200 16005KT P6SM OVC010
     FM251800 16010KT P6SM VCTS SCT015 BKN035CB
     FM252100 17012KT 5SM -TSRA BR BKN035CB=



000
FTUS44 KSHV 250732 AAB
TAFSHV
TAF AMD
KSHV 250732Z 2508/2606 16007KT P6SM BKN005
      TEMPO 2508/2512 SCT005 OVC010
     FM251200 16005KT P6SM OVC010
     FM251800 16010KT P6SM VCTS SCT015 BKN035CB
     FM252100 17012KT 5SM -TSRA BR BKN035CB=



000
FTUS44 KSHV 250617 AAA
TAFGGG
TAF AMD
KGGG 250617Z 2506/2606 15008KT P6SM BKN009 OVC015
     FM251800 16007KT P6SM VCTS SCT015 BKN035CB
     FM252000 15012KT 5SM -TSRA BR OVC035CB
     FM260000 16012KT P6SM VCTS OVC035CB=



000
FTUS44 KSHV 250541
TAFLFK
TAF
KLFK 250541Z 2506/2606 13007KT P6SM SCT004 OVC015
      TEMPO 2506/2510 BKN004
     FM251700 16009KT P6SM VCTS SCT015 BKN035CB
     FM252000 15010KT 5SM -TSRA BR OVC035CB
     FM260000 16009KT P6SM VCTS OVC035CB=



000
FTUS44 KSHV 250541
TAFELD
TAF
KELD 250541Z 2506/2606 16005KT P6SM SCT025 OVC110
     FM250900 17006KT P6SM OVC020
     FM251600 17008KT P6SM SCT020 BKN035
     FM251900 17010KT P6SM VCTS BKN050CB
     FM260200 15009KT 5SM -TSRA BR OVC035CB=



000
FTUS44 KSHV 250541
TAFTXK
TAF
KTXK 250541Z 2506/2606 17008KT P6SM BKN070 OVC090
     FM250800 17006KT P6SM OVC025
     FM251800 16007KT P6SM VCTS SCT025 BKN035CB
     FM252100 17010KT 5SM -TSRA BR BKN035CB=



000
FTUS44 KSHV 250541
TAFSHV
TAF
KSHV 250541Z 2506/2606 14006KT P6SM BKN090
     FM250900 16004KT P6SM OVC010
     FM251800 16010KT P6SM VCTS SCT015 BKN035CB
     FM252100 17012KT 5SM -TSRA BR BKN035CB=



000
FTUS44 KSHV 250541
TAFMLU
TAF
KMLU 250541Z 2506/2606 16005KT P6SM SCT040 BKN110
     FM251000 17006KT P6SM OVC020
     FM251700 17008KT P6SM SCT020 BKN035
     FM251900 17010KT P6SM VCTS BKN050CB=



000
FTUS44 KSHV 250541
TAFTYR
TAF
KTYR 250541Z 2506/2606 15008KT P6SM BKN009 OVC015
     FM251800 16007KT P6SM VCTS SCT015 BKN035CB
     FM252000 15012KT 5SM -TSRA BR OVC035CB
     FM260000 16012KT P6SM VCTS OVC035CB=



000
FTUS44 KSHV 250541
TAFGGG
TAF
KGGG 250541Z 2506/2606 16007KT P6SM SCT015 BKN080
     FM250800 16005KT P6SM OVC015
     FM251800 16007KT P6SM VCTS SCT015 BKN035CB
     FM252000 15012KT 5SM -TSRA BR OVC035CB
     FM260000 16012KT P6SM VCTS OVC035CB=



000
FTUS44 KSHV 250541
TAFLFK
TAF
KLFK 250541Z 2506/2606 13007KT P6SM SCT004 OVC015
      TEMPO 2506/2510 BKN004
     FM251700 16009KT P6SM VCTS SCT015 BKN035CB
     FM252000 15010KT 5SM -TSRA BR OVC035CB
     FM260000 16009KT P6SM VCTS OVC035CB=



000
FTUS44 KSHV 250541
TAFTXK
TAF
KTXK 250541Z 2506/2606 17008KT P6SM BKN070 OVC090
     FM250800 17006KT P6SM OVC025
     FM251800 16007KT P6SM VCTS SCT025 BKN035CB
     FM252100 17010KT 5SM -TSRA BR BKN035CB=



000
FTUS44 KSHV 250541
TAFSHV
TAF
KSHV 250541Z 2506/2606 14006KT P6SM BKN090
     FM250900 16004KT P6SM OVC010
     FM251800 16010KT P6SM VCTS SCT015 BKN035CB
     FM252100 17012KT 5SM -TSRA BR BKN035CB=



000
FTUS44 KSHV 250541
TAFELD
TAF
KELD 250541Z 2506/2606 16005KT P6SM SCT025 OVC110
     FM250900 17006KT P6SM OVC020
     FM251600 17008KT P6SM SCT020 BKN035
     FM251900 17010KT P6SM VCTS BKN050CB
     FM260200 15009KT 5SM -TSRA BR OVC035CB=



000
FTUS44 KSHV 250541
TAFMLU
TAF
KMLU 250541Z 2506/2606 16005KT P6SM SCT040 BKN110
     FM251000 17006KT P6SM OVC020
     FM251700 17008KT P6SM SCT020 BKN035
     FM251900 17010KT P6SM VCTS BKN050CB=



000
FTUS44 KSHV 250541
TAFTYR
TAF
KTYR 250541Z 2506/2606 15008KT P6SM BKN009 OVC015
     FM251800 16007KT P6SM VCTS SCT015 BKN035CB
     FM252000 15012KT 5SM -TSRA BR OVC035CB
     FM260000 16012KT P6SM VCTS OVC035CB=



000
FTUS44 KSHV 250541
TAFGGG
TAF
KGGG 250541Z 2506/2606 16007KT P6SM SCT015 BKN080
     FM250800 16005KT P6SM OVC015
     FM251800 16007KT P6SM VCTS SCT015 BKN035CB
     FM252000 15012KT 5SM -TSRA BR OVC035CB
     FM260000 16012KT P6SM VCTS OVC035CB=



000
FTUS44 KSHV 242341
TAFMLU
TAF
KMLU 242341Z 2500/2524 16010KT P6SM SCT040 BKN110
     FM250900 17006KT P6SM OVC020
     FM251600 17008KT P6SM SCT020 BKN035
     FM252100 17010KT P6SM VCTS BKN050CB=



000
FTUS44 KSHV 242341
TAFTYR
TAF
KTYR 242341Z 2500/2524 19012KT P6SM VCTS SCT025CB BKN050
      TEMPO 2500/2502 5SM -TSRA BR BKN025CB
     FM250300 17012KT P6SM OVC015
     FM251800 16007KT P6SM VCTS SCT015 BKN035CB=



000
FTUS44 KSHV 242341
TAFTXK
TAF
KTXK 242341Z 2500/2524 19012KT P6SM SCT025 BKN100
     FM250700 17006KT P6SM OVC025
     FM251800 16007KT P6SM SCT015 BKN035
     FM252100 17010KT P6SM VCTS BKN050CB=



000
FTUS44 KSHV 242341
TAFSHV
TAF
KSHV 242341Z 2500/2524 20012KT P6SM VCSH FEW025 BKN060
     FM250600 16008KT P6SM OVC015
     FM251800 16010KT P6SM SCT015 BKN035
     FM252100 17012KT P6SM VCTS BKN050CB=



000
FTUS44 KSHV 242341
TAFLFK
TAF
KLFK 242341Z 2500/2524 17010KT P6SM SCT015 BKN100
     FM250300 15010KT P6SM OVC015
     FM251700 16012KT P6SM SCT015 BKN035
     FM252100 17010KT P6SM VCTS BKN050CB=



000
FTUS44 KSHV 242341
TAFGGG
TAF
KGGG 242341Z 2500/2524 18012KT P6SM VCTS SCT025CB OVC035
      TEMPO 2500/2502 5SM -TSRA BR BKN025CB
     FM250300 17012KT P6SM OVC015
     FM251800 16007KT P6SM VCTS SCT015 BKN035CB=



000
FTUS44 KSHV 242341
TAFELD
TAF
KELD 242341Z 2500/2524 19010KT P6SM SCT025 BKN110
     FM250900 17006KT P6SM OVC020
     FM251600 17008KT P6SM SCT020 BKN035
     FM252100 17010KT P6SM VCTS BKN050CB=



000
FTUS44 KSHV 242341
TAFTYR
TAF
KTYR 242341Z 2500/2524 19012KT P6SM VCTS SCT025CB BKN050
      TEMPO 2500/2502 5SM -TSRA BR BKN025CB
     FM250300 17012KT P6SM OVC015
     FM251800 16007KT P6SM VCTS SCT015 BKN035CB=



000
FTUS44 KSHV 242341
TAFSHV
TAF
KSHV 242341Z 2500/2524 20012KT P6SM VCSH FEW025 BKN060
     FM250600 16008KT P6SM OVC015
     FM251800 16010KT P6SM SCT015 BKN035
     FM252100 17012KT P6SM VCTS BKN050CB=



000
FTUS44 KSHV 242341
TAFLFK
TAF
KLFK 242341Z 2500/2524 17010KT P6SM SCT015 BKN100
     FM250300 15010KT P6SM OVC015
     FM251700 16012KT P6SM SCT015 BKN035
     FM252100 17010KT P6SM VCTS BKN050CB=



000
FTUS44 KSHV 242341
TAFELD
TAF
KELD 242341Z 2500/2524 19010KT P6SM SCT025 BKN110
     FM250900 17006KT P6SM OVC020
     FM251600 17008KT P6SM SCT020 BKN035
     FM252100 17010KT P6SM VCTS BKN050CB=



000
FTUS44 KSHV 242341
TAFTXK
TAF
KTXK 242341Z 2500/2524 19012KT P6SM SCT025 BKN100
     FM250700 17006KT P6SM OVC025
     FM251800 16007KT P6SM SCT015 BKN035
     FM252100 17010KT P6SM VCTS BKN050CB=



000
FTUS44 KSHV 242341
TAFGGG
TAF
KGGG 242341Z 2500/2524 18012KT P6SM VCTS SCT025CB OVC035
      TEMPO 2500/2502 5SM -TSRA BR BKN025CB
     FM250300 17012KT P6SM OVC015
     FM251800 16007KT P6SM VCTS SCT015 BKN035CB=



000
FTUS44 KSHV 242341
TAFMLU
TAF
KMLU 242341Z 2500/2524 16010KT P6SM SCT040 BKN110
     FM250900 17006KT P6SM OVC020
     FM251600 17008KT P6SM SCT020 BKN035
     FM252100 17010KT P6SM VCTS BKN050CB=



000
FTUS44 KSHV 242306 AAC
TAFGGG
TAF AMD
KGGG 242306Z 2423/2518 18012KT P6SM VCTS SCT015CB OVC035
      TEMPO 2423/2501 5SM -TSRA BR BKN015CB
     FM250100 17012KT 5SM BR OVC015
     FM251200 17010KT 3SM BR OVC011
     FM251600 17010KT P6SM OVC015=



000
FTUS44 KSHV 242306 AAC
TAFGGG
TAF AMD
KGGG 242306Z 2423/2518 18012KT P6SM VCTS SCT015CB OVC035
      TEMPO 2423/2501 5SM -TSRA BR BKN015CB
     FM250100 17012KT 5SM BR OVC015
     FM251200 17010KT 3SM BR OVC011
     FM251600 17010KT P6SM OVC015=



000
FTUS44 KSHV 242203 AAB
TAFGGG
TAF AMD
KGGG 242203Z 2422/2518 18012KT P6SM VCTS SCT025CB OVC035
      TEMPO 2422/2424 BKN025CB
     FM250100 17012KT 5SM BR OVC015
     FM251200 17010KT 3SM BR OVC011
     FM251600 17010KT P6SM OVC015=



000
FTUS44 KSHV 242201 AAB
TAFTYR
TAF AMD
KTYR 242201Z 2422/2518 19012KT P6SM VCTS SCT025CB BKN050
      TEMPO 2422/2424 5SM -TSRA BR BKN025CB
     FM250300 17012KT 5SM BR OVC015
     FM251500 17010KT P6SM OVC020=



000
FTUS44 KSHV 242201 AAC
TAFSHV
TAF AMD
KSHV 242201Z 2422/2518 20012KT P6SM FEW025 BKN060
      TEMPO 2422/2424 SHRA BKN025
     FM250200 16008KT P6SM OVC015
     FM250400 17010KT 5SM -TSRA BR OVC020CB
     FM251200 17010KT P6SM BKN020=



000
FTUS44 KSHV 242157 AAB
TAFELD
TAF AMD
KELD 242157Z 2422/2518 19010KT P6SM SCT025 BKN110
      TEMPO 2422/2424 BKN025
     FM250600 17006KT P6SM OVC020
     FM251200 16010KT 5SM BR OVC011
     FM251500 16010KT P6SM OVC020=



000
FTUS44 KSHV 242157 AAB
TAFELD
TAF AMD
KELD 242157Z 2422/2518 19010KT P6SM SCT025 BKN110
      TEMPO 2422/2424 BKN025
     FM250600 17006KT P6SM OVC020
     FM251200 16010KT 5SM BR OVC011
     FM251500 16010KT P6SM OVC020=



000
FTUS44 KSHV 242156 AAA
TAFLFK
TAF AMD
KLFK 242156Z 2422/2518 17010KT P6SM SCT015 BKN100
      TEMPO 2422/2424 BKN015
     FM250300 15010KT 4SM BR OVC015
     FM251500 17012G20KT P6SM BKN020=



000
FTUS44 KSHV 242155 AAA
TAFTYR
TAF AMD
KTYR 242155Z 2422/2518 20012KT P6SM VCTS SCT025CB BKN050
      TEMPO 2422/2424 5SM -TSRA BR BKN025CB
     FM250300 17012KT 5SM BR OVC015
     FM251500 17010KT P6SM OVC020=



000
FTUS44 KSHV 242155 AAA
TAFTYR
TAF AMD
KTYR 242155Z 2422/2518 20012KT P6SM VCTS SCT025CB BKN050
      TEMPO 2422/2424 5SM -TSRA BR BKN025CB
     FM250300 17012KT 5SM BR OVC015
     FM251500 17010KT P6SM OVC020=



000
FTUS44 KSHV 242154 AAC
TAFTXK
TAF AMD
KTXK 242154Z 2422/2518 19012KT P6SM SCT025 OVC040
      TEMPO 2422/2424 BKN025
     FM250700 17010KT P6SM OVC025
     FM251200 17007KT P6SM OVC011=



000
FTUS44 KSHV 242153 AAB
TAFTXK
TAF AMD
KTXK 242153Z 2422/2518 15012KT P6SM SCT025 OVC040
      TEMPO 2422/2424 BKN025
     FM250700 17010KT P6SM OVC025
     FM251200 17007KT P6SM OVC011=



000
FTUS44 KSHV 242151 AAA
TAFMLU
TAF AMD
KMLU 242151Z 2422/2518 16010KT P6SM SCT040 BKN110
     FM250300 17010KT P6SM VCSH OVC035
     FM250600 17006KT P6SM OVC020
     FM251200 17008KT P6SM -SHRA OVC025
     FM251500 17010KT P6SM OVC020=



000
FTUS44 KSHV 242151 AAA
TAFMLU
TAF AMD
KMLU 242151Z 2422/2518 16010KT P6SM SCT040 BKN110
     FM250300 17010KT P6SM VCSH OVC035
     FM250600 17006KT P6SM OVC020
     FM251200 17008KT P6SM -SHRA OVC025
     FM251500 17010KT P6SM OVC020=



000
FTUS44 KSHV 242131 AAB
TAFSHV
TAF AMD
KSHV 242131Z 2422/2518 20012KT P6SM BKN020
     FM250200 16008KT P6SM OVC015
     FM250400 17010KT 5SM -TSRA BR OVC020CB
     FM251200 17010KT P6SM BKN020=



000
FTUS44 KSHV 242043 AAA
TAFGGG
TAF AMD
KGGG 242043Z 2421/2518 18012KT P6SM VCTS OVC025CB
     FM250100 17012KT 5SM BR OVC015
     FM251200 17010KT 3SM BR OVC011
     FM251600 17010KT P6SM OVC015=



000
FTUS44 KSHV 242042 AAB
TAFSHV
TAF AMD
KSHV 242042Z 2421/2518 18015KT P6SM BKN035
     FM250200 16008KT P6SM OVC015
     FM250400 17010KT 5SM -TSRA BR OVC020CB
     FM251200 17010KT P6SM BKN020=



000
FTUS44 KSHV 241921 AAA
TAFELD
TAF AMD
KELD 241921Z 2419/2518 18013G20KT 3SM -TSRA BR OVC025CB
     FM242030 17010KT P6SM VCTS OVC035CB
     FM250300 17010KT P6SM VCSH OVC035
     FM250600 17006KT P6SM OVC020
     FM251200 16010KT 5SM BR OVC011
     FM251500 16010KT P6SM OVC020=



000
FTUS44 KSHV 241814 AAA
TAFTXK
TAF AMD
KTXK 241814Z 2418/2518 17014KT 2SM -TSRA BR OVC020CB
     FM241900 15012KT P6SM BKN025
     FM250000 17015KT P6SM BKN025
      TEMPO 2500/2503 4SM -TSRA BKN015CB
     FM250300 17010KT P6SM OVC025
      TEMPO 2503/2506 P6SM -TSRA BKN025CB
     FM250700 17010KT P6SM OVC025
     FM250900 18008KT P6SM OVC011
     FM251200 17007KT P6SM OVC011
     FM251500 19008KT P6SM OVC015=



000
FTUS44 KSHV 241814 AAA
TAFTXK
TAF AMD
KTXK 241814Z 2418/2518 17014KT 2SM -TSRA BR OVC020CB
     FM241900 15012KT P6SM BKN025
     FM250000 17015KT P6SM BKN025
      TEMPO 2500/2503 4SM -TSRA BKN015CB
     FM250300 17010KT P6SM OVC025
      TEMPO 2503/2506 P6SM -TSRA BKN025CB
     FM250700 17010KT P6SM OVC025
     FM250900 18008KT P6SM OVC011
     FM251200 17007KT P6SM OVC011
     FM251500 19008KT P6SM OVC015=



000
FTUS44 KSHV 241720
TAFTXK
TAF
KTXK 241720Z 2418/2518 17014KT P6SM BKN035
     FM250000 17015KT P6SM BKN025
      TEMPO 2500/2503 4SM -TSRA BKN015CB
     FM250300 17010KT P6SM OVC025
      TEMPO 2503/2506 P6SM -TSRA BKN025CB
     FM250700 17010KT P6SM OVC025
     FM250900 18008KT P6SM OVC011
     FM251200 17007KT P6SM OVC011
     FM251500 19008KT P6SM OVC015=



000
FTUS44 KSHV 241720
TAFMLU
TAF
KMLU 241720Z 2418/2518 17012G18KT P6SM VCSH OVC020
     FM242000 18013G20KT 5SM -TSRA BR OVC025CB
     FM250300 17010KT P6SM VCSH OVC035
     FM250600 17006KT P6SM OVC020
     FM251200 17008KT P6SM -SHRA OVC025
     FM251500 17010KT P6SM OVC020=



000
FTUS44 KSHV 241720
TAFTYR
TAF
KTYR 241720Z 2418/2518 16012G20KT P6SM VCTS OVC025CB
     FM242200 16015G25KT P6SM VCTS OVC025CB
     FM250000 17012KT 5SM BR OVC015
     FM251200 17010KT 5SM BR OVC011
     FM251500 17010KT P6SM OVC020=



000
FTUS44 KSHV 241720
TAFELD
TAF
KELD 241720Z 2418/2518 17012G18KT P6SM VCSH OVC020
     FM242000 18013G20KT 5SM -TSRA BR OVC025CB
     FM250300 17010KT P6SM VCSH OVC035
     FM250600 17006KT P6SM OVC020
     FM251200 16010KT 5SM BR OVC011
     FM251500 16010KT P6SM OVC020=



000
FTUS44 KSHV 241720
TAFSHV
TAF
KSHV 241720Z 2418/2518 18012KT P6SM -SHRA VCTS BKN025CB
     FM241900 18014G22KT 5SM -TSRA BR OVC025CB
     FM250200 16008KT P6SM OVC015
     FM250400 17010KT 5SM -TSRA BR OVC020CB
     FM251200 17010KT P6SM BKN020=



000
FTUS44 KSHV 241720
TAFGGG
TAF
KGGG 241720Z 2418/2518 17014G22KT 4SM -TSRA BR OVC020CB
     FM242200 16015G25KT P6SM VCTS OVC025CB
     FM250100 17012KT 5SM BR OVC015
     FM251200 17010KT 3SM BR OVC011
     FM251600 17010KT P6SM OVC015=



000
FTUS44 KSHV 241720
TAFLFK
TAF
KLFK 241720Z 2418/2518 18012G20KT P6SM BKN040
     FM242100 16014G22KT P6SM VCTS OVC025CB
     FM250000 15010KT 5SM BR OVC015
     FM250900 15010KT 4SM BR OVC015
     FM251500 17012G20KT P6SM BKN020=



000
FTUS44 KSHV 241518 AAA
TAFTYR
TAF AMD
KTYR 241518Z 2415/2512 15014G22KT 3SM TSRA BR OVC020CB
     FM241800 16012G20KT P6SM VCTS OVC025CB
     FM242200 16015G25KT P6SM VCTS OVC025CB
     FM250000 17012KT 5SM BR OVC015=



000
FTUS44 KSHV 241149
TAFTXK
TAF
KTXK 241149Z 2412/2512 16010G15KT P6SM VCSH BKN010 OVC020
     FM241600 17013G20KT P6SM -SHRA VCTS OVC020CB
     FM241900 18014G22KT 5SM -TSRA BR OVC025CB
     FM250200 17010KT P6SM VCSH OVC015
     FM250600 17008KT P6SM OVC010=



000
FTUS44 KSHV 241149
TAFTYR
TAF
KTYR 241149Z 2412/2512 16010G15KT P6SM VCSH SCT015 BKN120
     FM241300 17013G20KT 6SM -SHRA VCTS BKN015CB
     FM241500 17014G22KT 4SM -TSRA BR OVC020CB
     FM242200 16015G25KT P6SM VCTS OVC025CB
     FM250000 17012KT 5SM BR OVC015=



000
FTUS44 KSHV 241149
TAFMLU
TAF
KMLU 241149Z 2412/2512 VRB03KT P6SM SCT015
     FM241400 16010KT P6SM BKN007 OVC015
     FM241600 17012G18KT P6SM VCSH OVC020
     FM242000 18013G20KT 5SM -TSRA BR OVC025CB
     FM250300 17010KT P6SM VCSH OVC035
     FM250600 17006KT P6SM OVC020=



000
FTUS44 KSHV 241149
TAFELD
TAF
KELD 241149Z 2412/2512 15010KT P6SM OVC014
     FM241400 16011KT P6SM BKN007 OVC015
     FM241600 17012G18KT P6SM VCSH OVC020
     FM242000 18013G20KT 5SM -TSRA BR OVC025CB
     FM250300 17010KT P6SM VCSH OVC035
     FM250600 17006KT P6SM OVC020=



000
FTUS44 KSHV 241149
TAFLFK
TAF
KLFK 241149Z 2412/2512 13006KT P6SM OVC007
     FM241300 15010KT P6SM VCSH BKN010 BKN020
     FM241500 16013G20KT 5SM -TSRA BR OVC020CB
     FM242100 16014G22KT P6SM VCTS OVC025CB
     FM250000 15010KT 5SM BR OVC015=



000
FTUS44 KSHV 241149
TAFGGG
TAF
KGGG 241149Z 2412/2512 14010KT P6SM BKN015 BKN030 OVC100
     FM241400 17013G20KT 6SM -SHRA VCTS BKN015CB
     FM241600 17014G22KT 4SM -TSRA BR OVC020CB
     FM242200 16015G25KT P6SM VCTS OVC025CB
     FM250100 17012KT 5SM BR OVC015=



000
FTUS44 KSHV 241149
TAFSHV
TAF
KSHV 241149Z 2412/2512 15009KT P6SM BKN007 OVC020
     FM241500 16012G18KT P6SM VCSH BKN015 OVC025
     FM241700 17013G20KT P6SM -SHRA VCTS BKN025CB
     FM241900 18014G22KT 5SM -TSRA BR OVC025CB
     FM250200 16008KT P6SM OVC015=



000
FTUS44 KSHV 241149
TAFGGG
TAF
KGGG 241149Z 2412/2512 14010KT P6SM BKN015 BKN030 OVC100
     FM241400 17013G20KT 6SM -SHRA VCTS BKN015CB
     FM241600 17014G22KT 4SM -TSRA BR OVC020CB
     FM242200 16015G25KT P6SM VCTS OVC025CB
     FM250100 17012KT 5SM BR OVC015=



000
FTUS44 KSHV 241149
TAFTXK
TAF
KTXK 241149Z 2412/2512 16010G15KT P6SM VCSH BKN010 OVC020
     FM241600 17013G20KT P6SM -SHRA VCTS OVC020CB
     FM241900 18014G22KT 5SM -TSRA BR OVC025CB
     FM250200 17010KT P6SM VCSH OVC015
     FM250600 17008KT P6SM OVC010=



000
FTUS44 KSHV 241149
TAFSHV
TAF
KSHV 241149Z 2412/2512 15009KT P6SM BKN007 OVC020
     FM241500 16012G18KT P6SM VCSH BKN015 OVC025
     FM241700 17013G20KT P6SM -SHRA VCTS BKN025CB
     FM241900 18014G22KT 5SM -TSRA BR OVC025CB
     FM250200 16008KT P6SM OVC015=



000
FTUS44 KSHV 241149
TAFMLU
TAF
KMLU 241149Z 2412/2512 VRB03KT P6SM SCT015
     FM241400 16010KT P6SM BKN007 OVC015
     FM241600 17012G18KT P6SM VCSH OVC020
     FM242000 18013G20KT 5SM -TSRA BR OVC025CB
     FM250300 17010KT P6SM VCSH OVC035
     FM250600 17006KT P6SM OVC020=



000
FTUS44 KSHV 241149
TAFLFK
TAF
KLFK 241149Z 2412/2512 13006KT P6SM OVC007
     FM241300 15010KT P6SM VCSH BKN010 BKN020
     FM241500 16013G20KT 5SM -TSRA BR OVC020CB
     FM242100 16014G22KT P6SM VCTS OVC025CB
     FM250000 15010KT 5SM BR OVC015=



000
FTUS44 KSHV 241149
TAFELD
TAF
KELD 241149Z 2412/2512 15010KT P6SM OVC014
     FM241400 16011KT P6SM BKN007 OVC015
     FM241600 17012G18KT P6SM VCSH OVC020
     FM242000 18013G20KT 5SM -TSRA BR OVC025CB
     FM250300 17010KT P6SM VCSH OVC035
     FM250600 17006KT P6SM OVC020=



000
FTUS44 KSHV 241149
TAFTYR
TAF
KTYR 241149Z 2412/2512 16010G15KT P6SM VCSH SCT015 BKN120
     FM241300 17013G20KT 6SM -SHRA VCTS BKN015CB
     FM241500 17014G22KT 4SM -TSRA BR OVC020CB
     FM242200 16015G25KT P6SM VCTS OVC025CB
     FM250000 17012KT 5SM BR OVC015=



000
FTUS44 KSHV 241059 AAC
TAFGGG
TAF AMD
KGGG 241059Z 2411/2506 16009KT P6SM -SHRA BKN015 BKN030 OVC100
     FM241400 17015G23KT 5SM -SHRA VCTS OVC025CB
     FM242200 16018G25KT P6SM VCTS OVC025CB
     FM250000 17018G25KT P6SM OVC025=



000
FTUS44 KSHV 241053 AAC
TAFLFK
TAF AMD
KLFK 241053Z 2411/2506 12006KT P6SM BKN008 OVC015
     FM241300 15010KT P6SM VCTS BKN015 BKN025CB
     FM241500 16014G23KT 5SM -TSRA BR OVC025CB
     FM242100 16015G23KT P6SM VCTS OVC025CB
     FM250000 15010KT P6SM OVC025=



000
FTUS44 KSHV 241053 AAC
TAFLFK
TAF AMD
KLFK 241053Z 2411/2506 12006KT P6SM BKN008 OVC015
     FM241300 15010KT P6SM VCTS BKN015 BKN025CB
     FM241500 16014G23KT 5SM -TSRA BR OVC025CB
     FM242100 16015G23KT P6SM VCTS OVC025CB
     FM250000 15010KT P6SM OVC025=



000
FTUS44 KSHV 241052 AAC
TAFTYR
TAF AMD
KTYR 241052Z 2411/2506 16012G18KT 6SM -SHRA SCT020 BKN120
     FM241300 17014G22KT 5SM SHRA VCTS BKN025CB
     FM241500 17015G23KT 4SM -TSRA BR OVC025CB
     FM242200 16018G25KT P6SM VCTS OVC025CB
     FM250000 17018G25KT P6SM OVC025=



000
FTUS44 KSHV 241052 AAC
TAFTYR
TAF AMD
KTYR 241052Z 2411/2506 16012G18KT 6SM -SHRA SCT020 BKN120
     FM241300 17014G22KT 5SM SHRA VCTS BKN025CB
     FM241500 17015G23KT 4SM -TSRA BR OVC025CB
     FM242200 16018G25KT P6SM VCTS OVC025CB
     FM250000 17018G25KT P6SM OVC025=



000
FTUS44 KSHV 240918 AAB
TAFGGG
TAF AMD
KGGG 240918Z 2409/2506 16010G15KT 6SM -SHRA VCTS BKN020CB BKN030
      TEMPO 2410/2414 4SM -TSRA OVC015CB
     FM241400 17015G23KT 5SM -TSRA BR OVC025CB
     FM242200 16018G25KT P6SM VCTS OVC025CB
     FM250000 17018G25KT P6SM OVC025=



000
FTUS44 KSHV 240824 AAB
TAFLFK
TAF AMD
KLFK 240824Z 2408/2506 14005KT P6SM SCT012 BKN020
     FM241300 15010KT P6SM VCTS BKN015 BKN025CB
     FM241500 16014G23KT 5SM -TSRA BR OVC025CB
     FM242100 16015G23KT P6SM VCTS OVC025CB
     FM250000 15010KT P6SM OVC025=



000
FTUS44 KSHV 240823 AAB
TAFTYR
TAF AMD
KTYR 240823Z 2408/2506 16013G20KT 6SM -SHRA VCTS SCT020CB BKN080
      TEMPO 2409/2413 4SM -TSRA BKN020CB
     FM241300 17014G22KT P6SM VCTS BKN025CB
     FM241500 17015G23KT 5SM -TSRA BR OVC025CB
     FM242200 16018G25KT P6SM VCTS OVC025CB
     FM250000 17018G25KT P6SM OVC025=



000
FTUS44 KSHV 240821 AAA
TAFTXK
TAF AMD
KTXK 240821Z 2408/2506 16009KT P6SM BKN013 BKN020
     FM241200 16010KT P6SM OVC010
     FM241500 16012KT P6SM VCTS BKN025CB
     FM241700 16013G20KT 5SM -TSRA BR OVC025CB
     FM250200 17012KT P6SM OVC025=



000
FTUS44 KSHV 240820 AAB
TAFSHV
TAF AMD
KSHV 240820Z 2408/2506 16008KT P6SM VCSH BKN012 OVC020
     FM241200 16009KT P6SM OVC010
     FM241700 16012KT P6SM VCTS BKN025CB
     FM241900 16013G20KT 5SM -TSRA BR OVC025CB
     FM250200 15012KT P6SM OVC025=



000
FTUS44 KSHV 240820 AAB
TAFSHV
TAF AMD
KSHV 240820Z 2408/2506 16008KT P6SM VCSH BKN012 OVC020
     FM241200 16009KT P6SM OVC010
     FM241700 16012KT P6SM VCTS BKN025CB
     FM241900 16013G20KT 5SM -TSRA BR OVC025CB
     FM250200 15012KT P6SM OVC025=



000
FTUS44 KSHV 240705 AAA
TAFGGG
TAF AMD
KGGG 240705Z 2407/2506 16009KT P6SM BKN015 BKN025
     FM241300 16012KT P6SM VCTS BKN025CB
     FM241500 17015G23KT 5SM -TSRA BR OVC025CB
     FM242200 16018G25KT P6SM VCTS OVC025CB
     FM250000 17018G25KT P6SM OVC025=



000
FTUS44 KSHV 240705 AAA
TAFLFK
TAF AMD
KLFK 240705Z 2407/2506 15005KT P6SM BKN010
     FM241300 15010KT P6SM VCTS SCT015 BKN025CB
     FM241500 16014G23KT 5SM -TSRA BR OVC025CB
     FM242100 16015G23KT P6SM VCTS OVC025CB
     FM250000 15010KT P6SM OVC025=



000
FTUS44 KSHV 240704 AAA
TAFTYR
TAF AMD
KTYR 240704Z 2407/2506 16012KT P6SM BKN019 BKN025
     FM241300 16012G18KT P6SM VCTS BKN025CB
     FM241500 17015G23KT 5SM -TSRA BR OVC025CB
     FM242200 16018G25KT P6SM VCTS OVC025CB
     FM250000 17018G25KT P6SM OVC025=



000
FTUS44 KSHV 240540
TAFTXK
TAF
KTXK 240540Z 2406/2506 15008KT P6SM SCT080 BKN250
     FM241000 16009KT P6SM OVC015
     FM241500 16012KT P6SM VCTS BKN025CB
     FM241700 16013G20KT 5SM -TSRA BR OVC025CB
     FM250200 17012KT P6SM OVC025=



000
FTUS44 KSHV 240540
TAFMLU
TAF
KMLU 240540Z 2406/2506 15005KT P6SM FEW060 SCT250
     FM241100 12004KT P6SM OVC015
     FM241900 17012KT P6SM VCTS BKN025CB
     FM242200 18013G20KT 5SM -TSRA BR OVC025CB
     FM250400 17010KT P6SM VCTS OVC025CB=



000
FTUS44 KSHV 240540
TAFSHV
TAF
KSHV 240540Z 2406/2506 15008KT P6SM FEW025 SCT100 BKN250
     FM240900 16009KT P6SM OVC015
     FM241700 16012KT P6SM VCTS BKN025CB
     FM241900 16013G20KT 5SM -TSRA BR OVC025CB
     FM250200 15012KT P6SM OVC025=



000
FTUS44 KSHV 240540
TAFELD
TAF
KELD 240540Z 2406/2506 12007KT P6SM BKN050 BKN250
     FM240900 14006KT P6SM OVC015
     FM241900 16012KT P6SM VCTS BKN025CB
     FM242200 16013G20KT 5SM -TSRA BR OVC025CB=



000
FTUS44 KSHV 240540
TAFLFK
TAF
KLFK 240540Z 2406/2506 14006KT P6SM SCT020 BKN250
     FM241300 15010KT P6SM VCTS BKN025CB
     FM241500 16014G23KT 5SM -TSRA BR OVC025CB
     FM242100 16015G23KT P6SM VCTS OVC025CB
     FM250000 15010KT P6SM OVC025=



000
FTUS44 KSHV 240540
TAFGGG
TAF
KGGG 240540Z 2406/2506 16009KT P6SM SCT030 BKN250
     FM241300 16012KT P6SM VCTS BKN025CB
     FM241500 17015G23KT 5SM -TSRA BR OVC025CB
     FM242200 16018G25KT P6SM VCTS OVC025CB
     FM250000 17018G25KT P6SM OVC025=



000
FTUS44 KSHV 240540
TAFTYR
TAF
KTYR 240540Z 2406/2506 16010KT P6SM SCT015 BKN250
     FM241300 16012KT P6SM VCTS BKN025CB
     FM241500 17015G23KT 5SM -TSRA BR OVC025CB
     FM242200 16018G25KT P6SM VCTS OVC025CB
     FM250000 17018G25KT P6SM OVC025=



000
FTUS44 KSHV 232341
TAFSHV
TAF
KSHV 232341Z 2400/2424 15010KT P6SM VCTS SCT025 BKN040CB
     FM240200 15008KT P6SM BKN100
     FM240900 16009KT P6SM OVC015
     FM241700 16012KT P6SM VCTS BKN025CB
     FM241900 16013G20KT 5SM -TSRA BR OVC025CB=



000
FTUS44 KSHV 232341
TAFTYR
TAF
KTYR 232341Z 2400/2424 15011KT P6SM VCTS SCT040CB OVC100
     FM240200 15008KT P6SM BKN100
     FM240600 16009KT P6SM OVC015
     FM241300 16012KT P6SM VCTS BKN025CB
     FM241500 17015G23KT 5SM -TSRA BR OVC025CB=



000
FTUS44 KSHV 232341
TAFGGG
TAF
KGGG 232341Z 2400/2424 15010KT P6SM VCTS SCT035CB BKN060
     FM240200 15008KT P6SM BKN100
     FM240600 16009KT P6SM OVC015
     FM241300 16012KT P6SM VCTS BKN025CB
     FM241500 17015G23KT 5SM -TSRA BR OVC025CB=



000
FTUS44 KSHV 232341
TAFLFK
TAF
KLFK 232341Z 2400/2424 12010KT P6SM VCTS SCT050CB OVC100
     FM240200 15008KT P6SM BKN100
     FM240600 16009KT P6SM OVC015
     FM241300 15010KT P6SM VCTS BKN025CB
     FM241500 16014G23KT 5SM -TSRA BR OVC025CB=



000
FTUS44 KSHV 232341
TAFELD
TAF
KELD 232341Z 2400/2424 11006KT P6SM SCT050 BKN250
     FM240900 14006KT P6SM OVC015
     FM241900 16012KT P6SM VCTS BKN025CB
     FM242200 16013G20KT 5SM -TSRA BR OVC025CB=



000
FTUS44 KSHV 232341
TAFMLU
TAF
KMLU 232341Z 2400/2424 13005KT P6SM OVC250
     FM240900 14006KT P6SM OVC015
     FM241900 17012KT P6SM VCTS BKN025CB
     FM242200 18013G20KT 5SM -TSRA BR OVC025CB=



000
FTUS44 KSHV 232341
TAFTXK
TAF
KTXK 232341Z 2400/2424 14010KT P6SM VCTS BKN040CB OVC100
     FM240200 15008KT P6SM BKN100
     FM240900 16009KT P6SM OVC015
     FM241500 16012KT P6SM VCTS BKN025CB
     FM241700 16013G20KT 5SM -TSRA BR OVC025CB=



000
FTUS44 KSHV 232341
TAFTXK
TAF
KTXK 232341Z 2400/2424 14010KT P6SM VCTS BKN040CB OVC100
     FM240200 15008KT P6SM BKN100
     FM240900 16009KT P6SM OVC015
     FM241500 16012KT P6SM VCTS BKN025CB
     FM241700 16013G20KT 5SM -TSRA BR OVC025CB=



000
FTUS44 KSHV 232341
TAFSHV
TAF
KSHV 232341Z 2400/2424 15010KT P6SM VCTS SCT025 BKN040CB
     FM240200 15008KT P6SM BKN100
     FM240900 16009KT P6SM OVC015
     FM241700 16012KT P6SM VCTS BKN025CB
     FM241900 16013G20KT 5SM -TSRA BR OVC025CB=



000
FTUS44 KSHV 232341
TAFLFK
TAF
KLFK 232341Z 2400/2424 12010KT P6SM VCTS SCT050CB OVC100
     FM240200 15008KT P6SM BKN100
     FM240600 16009KT P6SM OVC015
     FM241300 15010KT P6SM VCTS BKN025CB
     FM241500 16014G23KT 5SM -TSRA BR OVC025CB=



000
FTUS44 KSHV 232341
TAFMLU
TAF
KMLU 232341Z 2400/2424 13005KT P6SM OVC250
     FM240900 14006KT P6SM OVC015
     FM241900 17012KT P6SM VCTS BKN025CB
     FM242200 18013G20KT 5SM -TSRA BR OVC025CB=



000
FTUS44 KSHV 232341
TAFTYR
TAF
KTYR 232341Z 2400/2424 15011KT P6SM VCTS SCT040CB OVC100
     FM240200 15008KT P6SM BKN100
     FM240600 16009KT P6SM OVC015
     FM241300 16012KT P6SM VCTS BKN025CB
     FM241500 17015G23KT 5SM -TSRA BR OVC025CB=



000
FTUS44 KSHV 232341
TAFGGG
TAF
KGGG 232341Z 2400/2424 15010KT P6SM VCTS SCT035CB BKN060
     FM240200 15008KT P6SM BKN100
     FM240600 16009KT P6SM OVC015
     FM241300 16012KT P6SM VCTS BKN025CB
     FM241500 17015G23KT 5SM -TSRA BR OVC025CB=



000
FTUS44 KSHV 232341
TAFELD
TAF
KELD 232341Z 2400/2424 11006KT P6SM SCT050 BKN250
     FM240900 14006KT P6SM OVC015
     FM241900 16012KT P6SM VCTS BKN025CB
     FM242200 16013G20KT 5SM -TSRA BR OVC025CB=



000
FTUS44 KSHV 232227 AAA
TAFGGG
TAF AMD
KGGG 232227Z 2322/2418 15010KT P6SM SHRA VCTS SCT035 BKN060CB
     FM240300 13009KT 5SM BR VCSH OVC025
     FM240900 15010KT P6SM OVC007
     FM241200 16011KT 4SM -SHRA BR OVC007=



000
FTUS44 KSHV 232227 AAA
TAFGGG
TAF AMD
KGGG 232227Z 2322/2418 15010KT P6SM SHRA VCTS SCT035 BKN060CB
     FM240300 13009KT 5SM BR VCSH OVC025
     FM240900 15010KT P6SM OVC007
     FM241200 16011KT 4SM -SHRA BR OVC007=



000
FTUS44 KSHV 232208 AAC
TAFSHV
TAF AMD
KSHV 232208Z 2322/2418 15010KT P6SM VCTS SCT025 BKN040CB
      TEMPO 2322/2323 5SM -TSRA BR BKN025CB
     FM240300 13009KT 5SM -SHRA VCTS OVC030CB
     FM240900 16009KT 6SM BR OVC015
     FM241500 15009KT 4SM BR OVC007=



000
FTUS44 KSHV 232203 AAB
TAFLFK
TAF AMD
KLFK 232203Z 2322/2418 12010KT P6SM VCTS SCT050CB
      TEMPO 2322/2323 VRB15G25KT 2SM -TSRA BKN030CB
     FM240300 13006KT 5SM BR VCSH OVC025
     FM240900 13007KT 4SM BR OVC007
     FM241500 14009KT P6SM OVC015=



000
FTUS44 KSHV 232151 AAA
TAFTYR
TAF AMD
KTYR 232151Z 2322/2418 15011KT P6SM SHRA VCTS BKN040CB OVC100
      TEMPO 2322/2401 5SM -TSRA BR BKN020CB
     FM240300 13009KT 5SM BR VCSH OVC025
     FM241200 16012KT 4SM -TSRA BR OVC015CB
     FM241500 17013KT 4SM BR OVC004=



000
FTUS44 KSHV 232103 AAA
TAFLFK
TAF AMD
KLFK 232103Z 2321/2418 12010KT P6SM VCTS SCT050CB
      TEMPO 2321/2322 VRB15G25KT 4SM -TSRA BKN040CB
     FM240300 13006KT 5SM BR VCSH OVC025
     FM240900 13007KT 4SM BR OVC007
     FM241500 14009KT P6SM OVC015=



000
FTUS44 KSHV 232103 AAA
TAFLFK
TAF AMD
KLFK 232103Z 2321/2418 12010KT P6SM VCTS SCT050CB
      TEMPO 2321/2322 VRB15G25KT 4SM -TSRA BKN040CB
     FM240300 13006KT 5SM BR VCSH OVC025
     FM240900 13007KT 4SM BR OVC007
     FM241500 14009KT P6SM OVC015=



000
FTUS44 KSHV 231812 CCA
TAFLFK
TAF COR
KLFK 231812Z 2318/2418 15008KT P6SM VCSH FEW025 SCT035 SCT045
     FM232000 15008KT 5SM SHRA VCTS BKN040CB OVC100
     FM240300 13006KT 5SM BR VCSH OVC025
     FM240900 13007KT 4SM BR OVC007
     FM241500 14009KT P6SM OVC015=



000
FTUS44 KSHV 231743
TAFLFK
TAF
KLFK 231743Z 2318/2418 14010KT P6SM VCTS BKN023 BKN030CB
     FM232100 15008KT 5SM SHRA VCTS BKN040CB OVC100
     FM240300 13006KT 5SM BR VCSH OVC025
     FM240900 13007KT 4SM BR OVC007
     FM241500 14009KT P6SM OVC015=



000
FTUS44 KSHV 231743
TAFTYR
TAF
KTYR 231743Z 2318/2418 15010KT P6SM VCTS BKN020CB
     FM232100 15011KT 5SM SHRA VCTS BKN040CB OVC100
     FM240300 13009KT 5SM BR VCSH OVC025
     FM241200 16012KT 4SM -TSRA BR OVC015CB
     FM241500 17013KT 4SM BR OVC004=



000
FTUS44 KSHV 231743
TAFTXK
TAF
KTXK 231743Z 2318/2418 12008KT P6SM VCSH SCT035 BKN110
     FM232100 14010KT P6SM VCTS BKN040CB OVC100
     FM240000 15006KT 5SM -SHRA VCTS OVC030CB
     FM241200 16009KT 5SM BR OVC007
     FM241600 16011KT 4SM -TSRA BR OVC007CB=



000
FTUS44 KSHV 231743
TAFSHV
TAF
KSHV 231743Z 2318/2418 14009KT P6SM VCSH FEW026 SCT030 BKN060
     FM232100 15010KT P6SM VCTS BKN040CB OVC100
     FM240300 13009KT 5SM -SHRA VCTS OVC030CB
     FM240900 16009KT 6SM BR OVC015
     FM241500 15009KT 4SM BR OVC007=



000
FTUS44 KSHV 231743
TAFELD
TAF
KELD 231743Z 2318/2418 11006KT P6SM SCT027 BKN035
     FM240000 14003KT P6SM SCT040 OVC150
     FM240600 13003KT P6SM VCSH BKN030 OVC100
     FM241200 13007KT 4SM -SHRA BR OVC015
     FM241500 14011KT 5SM -SHRA BR OVC007=



000
FTUS44 KSHV 231743
TAFMLU
TAF
KMLU 231743Z 2318/2418 17005KT P6SM FEW030 BKN040
     FM240000 14003KT P6SM SCT040 OVC150
     FM240600 13003KT P6SM VCSH BKN030 OVC100
     FM240900 14006KT P6SM OVC015=



000
FTUS44 KSHV 231743
TAFGGG
TAF
KGGG 231743Z 2318/2418 14010G17KT P6SM VCSH BKN018
     FM231900 14009KT P6SM VCTS BKN035CB OVC150
     FM232200 15010KT 5SM SHRA VCTS BKN040CB OVC100
     FM240300 13009KT 5SM BR VCSH OVC025
     FM240900 15010KT P6SM OVC007
     FM241200 16011KT 4SM -SHRA BR OVC007=



000
FTUS44 KSHV 231743
TAFLFK
TAF
KLFK 231743Z 2318/2418 14010KT P6SM VCTS BKN023 BKN030CB
     FM232100 15008KT 5SM SHRA VCTS BKN040CB OVC100
     FM240300 13006KT 5SM BR VCSH OVC025
     FM240900 13007KT 4SM BR OVC007
     FM241500 14009KT P6SM OVC015=



000
FTUS44 KSHV 231743
TAFTXK
TAF
KTXK 231743Z 2318/2418 12008KT P6SM VCSH SCT035 BKN110
     FM232100 14010KT P6SM VCTS BKN040CB OVC100
     FM240000 15006KT 5SM -SHRA VCTS OVC030CB
     FM241200 16009KT 5SM BR OVC007
     FM241600 16011KT 4SM -TSRA BR OVC007CB=



000
FTUS44 KSHV 231743
TAFGGG
TAF
KGGG 231743Z 2318/2418 14010G17KT P6SM VCSH BKN018
     FM231900 14009KT P6SM VCTS BKN035CB OVC150
     FM232200 15010KT 5SM SHRA VCTS BKN040CB OVC100
     FM240300 13009KT 5SM BR VCSH OVC025
     FM240900 15010KT P6SM OVC007
     FM241200 16011KT 4SM -SHRA BR OVC007=



000
FTUS44 KSHV 231743
TAFTYR
TAF
KTYR 231743Z 2318/2418 15010KT P6SM VCTS BKN020CB
     FM232100 15011KT 5SM SHRA VCTS BKN040CB OVC100
     FM240300 13009KT 5SM BR VCSH OVC025
     FM241200 16012KT 4SM -TSRA BR OVC015CB
     FM241500 17013KT 4SM BR OVC004=



000
FTUS44 KSHV 231743
TAFMLU
TAF
KMLU 231743Z 2318/2418 17005KT P6SM FEW030 BKN040
     FM240000 14003KT P6SM SCT040 OVC150
     FM240600 13003KT P6SM VCSH BKN030 OVC100
     FM240900 14006KT P6SM OVC015=



000
FTUS44 KSHV 231743
TAFSHV
TAF
KSHV 231743Z 2318/2418 14009KT P6SM VCSH FEW026 SCT030 BKN060
     FM232100 15010KT P6SM VCTS BKN040CB OVC100
     FM240300 13009KT 5SM -SHRA VCTS OVC030CB
     FM240900 16009KT 6SM BR OVC015
     FM241500 15009KT 4SM BR OVC007=



000
FTUS44 KSHV 231743
TAFELD
TAF
KELD 231743Z 2318/2418 11006KT P6SM SCT027 BKN035
     FM240000 14003KT P6SM SCT040 OVC150
     FM240600 13003KT P6SM VCSH BKN030 OVC100
     FM241200 13007KT 4SM -SHRA BR OVC015
     FM241500 14011KT 5SM -SHRA BR OVC007=



000
FTUS44 KSHV 231206 AAA
TAFGGG
TAF AMD
KGGG 231206Z 2312/2412 09004KT P6SM SCT003 OVC025
      TEMPO 2312/2314 BKN003
     FM231600 12006KT P6SM VCSH BKN020 OVC035
     FM231900 14009KT P6SM VCTS BKN035CB OVC150
     FM232200 15010KT 5SM SHRA VCTS BKN040CB OVC100
     FM240300 13009KT 5SM BR VCSH OVC025=



000
FTUS44 KSHV 231145
TAFTXK
TAF
KTXK 231145Z 2312/2412 09003KT P6SM BKN080 OVC100
     FM231300 10005KT P6SM SCT020 OVC090
      TEMPO 2314/2318 BKN020
     FM231800 14007KT P6SM VCSH BKN035 OVC250
     FM232100 14010KT P6SM VCTS BKN040CB OVC100
     FM240000 15006KT 5SM -SHRA VCTS OVC030CB=



000
FTUS44 KSHV 231145
TAFSHV
TAF
KSHV 231145Z 2312/2412 10004KT P6SM SCT250
     FM231400 12006KT P6SM SCT020 BKN250
      TEMPO 2314/2318 BKN020
     FM231800 14009KT P6SM VCSH BKN035 OVC250
     FM232100 15010KT P6SM VCTS BKN040CB OVC100
     FM240300 13009KT 5SM -SHRA VCTS OVC030CB=



000
FTUS44 KSHV 231145
TAFTYR
TAF
KTYR 231145Z 2312/2412 13008KT P6SM SCT020 OVC030
      TEMPO 2312/2315 BKN020
     FM231500 13009KT P6SM VCSH BKN020 OVC035
     FM231800 14010KT P6SM VCTS BKN035CB OVC150
     FM232100 15011KT 5SM SHRA VCTS BKN040CB OVC100
     FM240300 13009KT 5SM BR VCSH OVC025=



000
FTUS44 KSHV 231145
TAFLFK
TAF
KLFK 231145Z 2312/2412 09005KT 6SM BR BKN019
     FM231500 12005KT P6SM VCSH BKN020 OVC035
     FM231800 14007KT P6SM VCTS BKN035CB OVC150
     FM232100 15008KT 5SM SHRA VCTS BKN040CB OVC100
     FM240300 13006KT 5SM BR VCSH OVC025=



000
FTUS44 KSHV 231145
TAFELD
TAF
KELD 231145Z 2312/2412 VRB03KT P6SM SCT250
     FM231600 13007KT P6SM BKN035 BKN250
     FM240000 14003KT P6SM SCT040 OVC150
     FM240600 13003KT P6SM VCSH BKN030 OVC100=



000
FTUS44 KSHV 231145
TAFMLU
TAF
KMLU 231145Z 2312/2412 VRB03KT P6SM SCT250
     FM231600 14007KT P6SM BKN035 BKN250
     FM240000 14003KT P6SM SCT040 OVC150
     FM240600 13003KT P6SM VCSH BKN030 OVC100=



000
FTUS44 KSHV 231145
TAFGGG
TAF
KGGG 231145Z 2312/2412 10005KT P6SM FEW030
      TEMPO 2312/2316 BKN020
     FM231600 12006KT P6SM VCSH BKN020 OVC035
     FM231900 14009KT P6SM VCTS BKN035CB OVC150
     FM232200 15010KT 5SM SHRA VCTS BKN040CB OVC100
     FM240300 13009KT 5SM BR VCSH OVC025=



000
FTUS44 KSHV 231145
TAFTXK
TAF
KTXK 231145Z 2312/2412 09003KT P6SM BKN080 OVC100
     FM231300 10005KT P6SM SCT020 OVC090
      TEMPO 2314/2318 BKN020
     FM231800 14007KT P6SM VCSH BKN035 OVC250
     FM232100 14010KT P6SM VCTS BKN040CB OVC100
     FM240000 15006KT 5SM -SHRA VCTS OVC030CB=



000
FTUS44 KSHV 231145
TAFSHV
TAF
KSHV 231145Z 2312/2412 10004KT P6SM SCT250
     FM231400 12006KT P6SM SCT020 BKN250
      TEMPO 2314/2318 BKN020
     FM231800 14009KT P6SM VCSH BKN035 OVC250
     FM232100 15010KT P6SM VCTS BKN040CB OVC100
     FM240300 13009KT 5SM -SHRA VCTS OVC030CB=



000
FTUS44 KSHV 231145
TAFTYR
TAF
KTYR 231145Z 2312/2412 13008KT P6SM SCT020 OVC030
      TEMPO 2312/2315 BKN020
     FM231500 13009KT P6SM VCSH BKN020 OVC035
     FM231800 14010KT P6SM VCTS BKN035CB OVC150
     FM232100 15011KT 5SM SHRA VCTS BKN040CB OVC100
     FM240300 13009KT 5SM BR VCSH OVC025=



000
FTUS44 KSHV 231145
TAFELD
TAF
KELD 231145Z 2312/2412 VRB03KT P6SM SCT250
     FM231600 13007KT P6SM BKN035 BKN250
     FM240000 14003KT P6SM SCT040 OVC150
     FM240600 13003KT P6SM VCSH BKN030 OVC100=



000
FTUS44 KSHV 231145
TAFMLU
TAF
KMLU 231145Z 2312/2412 VRB03KT P6SM SCT250
     FM231600 14007KT P6SM BKN035 BKN250
     FM240000 14003KT P6SM SCT040 OVC150
     FM240600 13003KT P6SM VCSH BKN030 OVC100=



000
FTUS44 KSHV 231145
TAFGGG
TAF
KGGG 231145Z 2312/2412 10005KT P6SM FEW030
      TEMPO 2312/2316 BKN020
     FM231600 12006KT P6SM VCSH BKN020 OVC035
     FM231900 14009KT P6SM VCTS BKN035CB OVC150
     FM232200 15010KT 5SM SHRA VCTS BKN040CB OVC100
     FM240300 13009KT 5SM BR VCSH OVC025=



000
FTUS44 KSHV 231145
TAFLFK
TAF
KLFK 231145Z 2312/2412 09005KT 6SM BR BKN019
     FM231500 12005KT P6SM VCSH BKN020 OVC035
     FM231800 14007KT P6SM VCTS BKN035CB OVC150
     FM232100 15008KT 5SM SHRA VCTS BKN040CB OVC100
     FM240300 13006KT 5SM BR VCSH OVC025=



000
FTUS44 KSHV 230534
TAFSHV
TAF
KSHV 230534Z 2306/2406 12005KT P6SM SCT025 BKN100
      TEMPO 2311/2313 BKN015
     FM231300 12006KT P6SM OVC015
     FM231800 15008KT P6SM BKN035
     FM232100 14010KT P6SM VCSH OVC035=



000
FTUS44 KSHV 230534
TAFGGG
TAF
KGGG 230534Z 2306/2406 12006KT P6SM BKN035 BKN100
     FM231000 12006KT P6SM OVC015
     FM231900 15010KT P6SM VCSH OVC035=



000
FTUS44 KSHV 230534
TAFTYR
TAF
KTYR 230534Z 2306/2406 13008KT P6SM SCT030 BKN080
     FM230800 12006KT P6SM OVC015
     FM231900 15010KT P6SM VCSH OVC035=



000
FTUS44 KSHV 230534
TAFTXK
TAF
KTXK 230534Z 2306/2406 11005KT P6SM BKN090
     FM231400 13006KT P6SM BKN015
     FM231700 15008KT P6SM BKN035
     FM232100 14010KT P6SM VCSH OVC035=



000
FTUS44 KSHV 230534
TAFELD
TAF
KELD 230534Z 2306/2406 10004KT P6SM FEW250
     FM231600 13007KT P6SM SCT035=



000
FTUS44 KSHV 230534
TAFMLU
TAF
KMLU 230534Z 2306/2406 04003KT P6SM FEW250
     FM231600 13007KT P6SM SCT035 BKN250
     FM240100 14002KT P6SM OVC100=



000
FTUS44 KSHV 230534
TAFLFK
TAF
KLFK 230534Z 2306/2406 09005KT P6SM SCT025 BKN035
     FM230700 12006KT P6SM OVC015
     FM231900 15010KT P6SM VCSH OVC035=



000
FTUS44 KSHV 230534
TAFSHV
TAF
KSHV 230534Z 2306/2406 12005KT P6SM SCT025 BKN100
      TEMPO 2311/2313 BKN015
     FM231300 12006KT P6SM OVC015
     FM231800 15008KT P6SM BKN035
     FM232100 14010KT P6SM VCSH OVC035=



000
FTUS44 KSHV 230534
TAFMLU
TAF
KMLU 230534Z 2306/2406 04003KT P6SM FEW250
     FM231600 13007KT P6SM SCT035 BKN250
     FM240100 14002KT P6SM OVC100=



    US Dept of Commerce
    National Oceanic and Atmospheric Administration
    National Weather Service
    1325 East West Highway
    Silver Spring, MD 20910
    Page Author: NWS Internet Services Team
Disclaimer
Information Quality
Credits
Glossary
Privacy Policy
Freedom of Information Act (FOIA)
About Us
Career Opportunities